WB5MTX Weather Reports


Display with metric or nautical units.
time (UTC)temp
F
wind
direction
speed
MPH
gust
MPH
rain 1hr
in
rain 24hr
in
rain mn
in
humidity
%
barometer
mb
20240526214605 97 230 3.0 15.0 0.00 0.00 0.00 40 1004.5
20240526213049 97 243 3.0 12.0 0.00 0.00 0.00 38 1004.7
20240526211600 97 183 4.0 12.0 0.00 0.00 0.00 43 1004.8
20240526210052 96 216 3.0 13.0 0.00 0.00 0.00 44 1005.0
20240526204606 96 205 4.0 13.0 0.00 0.00 0.00 45 1004.9
20240526203052 95 187 6.0 17.0 0.00 0.00 0.00 45 1004.9
20240526201552 95 207 3.0 15.0 0.00 0.00 0.00 47 1004.9
20240526200055 95 186 7.0 20.0 0.00 0.00 0.00 48 1004.9
20240526194606 94 227 6.0 16.0 0.00 0.00 0.00 50 1005.0
20240526193052 93 233 7.0 17.0 0.00 0.00 0.00 52 1005.0
20240526191554 93 140 4.0 16.0 0.00 0.00 0.00 51 1005.1
20240526190057 93 228 6.0 16.0 0.00 0.00 0.00 55 1005.3
20240526184604 93 273 4.0 16.0 0.00 0.00 0.00 56 1005.3
20240526183058 92 221 7.0 16.0 0.00 0.00 0.00 54 1005.5
20240526181551 91 240 6.0 20.0 0.00 0.00 0.00 57 1005.6
20240526180054 90 186 9.0 20.0 0.00 0.00 0.00 57 1005.5
20240526174612 90 125 7.0 22.0 0.00 0.00 0.00 58 1005.7
20240526173054 89 205 7.0 18.0 0.00 0.00 0.00 58 1005.8
20240526171553 88 233 8.0 19.0 0.00 0.00 0.00 57 1005.9
20240526170052 88 227 7.0 19.0 0.00 0.00 0.00 57 1006.0
20240526164557 88 192 7.0 21.0 0.00 0.00 0.00 58 1006.1
20240526163100 87 196 8.0 25.0 0.00 0.00 0.00 56 1006.2
20240526161607 87 227 7.0 17.0 0.00 0.00 0.00 58 1006.1
20240526160133 86 225 7.0 20.0 0.00 0.00 0.00 58 1006.1
20240526154557 86 211 6.0 20.0 0.00 0.00 0.00 59 1006.1
20240526153056 85 197 7.0 20.0 0.00 0.00 0.00 59 1006.0
20240526151551 84 192 8.0 20.0 0.00 0.00 0.00 59 1005.9
20240526150055 83 216 5.0 16.0 0.00 0.00 0.00 61 1005.9
20240526144553 82 297 5.0 17.0 0.00 0.00 0.00 62 1006.1
20240526143056 82 120 4.0 18.0 0.00 0.00 0.00 63 1005.9
20240526141551 81 159 4.0 19.0 0.00 0.00 0.00 64 1005.7
20240526140111 79 207 4.0 12.0 0.00 0.00 0.00 68 1005.7
20240526134554 78 213 2.0 12.0 0.00 0.00 0.00 70 1005.5
20240526133053 77 0 3.0 12.0 0.00 0.00 0.00 73 1005.0
20240526131556 76 196 2.0 11.0 0.00 0.00 0.00 75 1005.1
20240526130112 75 223 4.0 13.0 0.00 0.00 0.00 75 1004.6
20240526124553 75 202 4.0 14.0 0.00 0.00 0.00 74 1004.6
20240526123053 75 0 2.0 14.0 0.00 0.00 0.00 74 1004.6
20240526104619 84 212 2.0 28.0 0.00 0.00 0.00 43 1002.9
20240526103052 80 231 3.0 22.0 0.00 0.00 0.00 52 1003.1
20240526101554 75 220 8.0 26.0 0.00 0.00 0.00 76 1003.2
20240526100100 75 133 9.0 24.0 0.00 0.00 0.00 82 1004.4
20240526094601 76 207 4.0 20.0 0.00 0.00 0.00 83 1007.6
20240526093057 76 186 4.0 18.0 0.00 0.00 0.00 81 1005.9
20240526091559 77 0 3.0 17.0 0.00 0.00 0.00 79 1004.9
20240526090113 77 0 2.0 14.0 0.00 0.00 0.00 78 1004.6
20240526084551 77 223 3.0 16.0 0.00 0.00 0.00 78 1004.6
20240526083052 77 173 4.0 16.0 0.00 0.00 0.00 76 1004.3
20240526081553 78 202 3.0 14.0 0.00 0.00 0.00 75 1004.0
20240526080059 78 196 3.0 14.0 0.00 0.00 0.00 75 1004.0
20240526074551 78 180 3.0 17.0 0.00 0.00 0.00 74 1003.9
20240526073103 78 194 4.0 16.0 0.00 0.00 0.00 74 1003.7
20240526071555 79 142 4.0 18.0 0.00 0.00 0.00 74 1003.5
20240526070054 79 207 3.0 22.0 0.00 0.00 0.00 73 1003.6
20240526064551 80 0 3.0 19.0 0.00 0.00 0.00 73 1003.8
20240526063055 80 0 3.0 16.0 0.00 0.00 0.00 73 1003.9
20240526061612 81 154 3.0 24.0 0.00 0.00 0.00 73 1003.9
20240526060053 81 195 4.0 21.0 0.00 0.00 0.00 73 1004.0
20240526054556 81 237 5.0 20.0 0.00 0.00 0.00 72 1003.9
20240526053053 82 200 5.0 17.0 0.00 0.00 0.00 72 1004.0
20240526051557 82 0 5.0 17.0 0.00 0.00 0.00 72 1004.3
20240526050054 83 161 5.0 15.0 0.00 0.00 0.00 71 1004.3
20240526044555 83 144 5.0 21.0 0.00 0.00 0.00 71 1004.5
20240526043054 83 97 7.0 23.0 0.00 0.00 0.00 70 1004.0
20240526041553 84 163 7.0 22.0 0.00 0.00 0.00 70 1003.6
20240526040055 84 144 6.0 21.0 0.00 0.00 0.00 69 1003.3
20240526034555 84 207 7.0 20.0 0.00 0.00 0.00 68 1003.3
20240526033058 85 221 6.0 17.0 0.00 0.00 0.00 67 1003.2
20240526031556 85 161 5.0 17.0 0.00 0.00 0.00 68 1003.1
20240526030053 85 0 4.0 15.0 0.00 0.00 0.00 70 1003.2
20240526024610 86 119 3.0 16.0 0.00 0.00 0.00 69 1003.7
20240526023052 87 138 5.0 20.0 0.00 0.00 0.00 69 1003.9
20240526021552 87 178 3.0 15.0 0.00 0.00 0.00 70 1003.3
20240526020057 87 148 4.0 15.0 0.00 0.00 0.00 71 1003.5
20240526014610 86 59 1.0 11.0 0.00 0.00 0.00 73 1003.3
20240526013055 87 0 1.0 9.0 0.00 0.00 0.00 72 1003.2
20240526011552 87 0 0.0 7.0 0.00 0.00 0.00 72 1003.6
20240526010105 87 215 3.0 11.0 0.00 0.00 0.00 71 1004.0
20240526004600 87 149 3.0 13.0 0.00 0.00 0.00 71 1003.7
20240526003100 87 98 0.0 9.0 0.00 0.00 0.00 71 1003.7
20240526001554 88 0 1.0 10.0 0.00 0.00 0.00 71 1004.4
20240526000102 88 217 2.0 8.0 0.00 0.00 0.00 70 1004.5
20240525234618 88 0 2.0 10.0 0.00 0.00 0.00 69 1003.8
20240525233053 89 161 0.0 9.0 0.00 0.00 0.00 71 1004.6
20240525231554 88 147 2.0 20.0 0.00 0.00 0.00 72 1004.9
20240525230055 88 117 4.0 13.0 0.00 0.00 0.00 71 1002.7
20240525224605 88 100 5.0 16.0 0.00 0.00 0.00 70 1003.1
20240525223052 90 134 4.0 15.0 0.00 0.00 0.00 68 1003.4
20240525221558 89 127 4.0 16.0 0.00 0.00 0.00 69 1004.3
20240525220056 89 99 5.0 13.0 0.00 0.00 0.00 68 1004.2